Time;durP1;ratioP1;P1;durP2;ratioP2;P2;SDS_P1;SDS_P2;PMS_P1;PMS_P2;Temp;Humidity;BMP_temperature;BMP_pressure;BME280_temperature;BME280_humidity;BME280_pressure;Samples;Min_cycle;Max_cycle;Signal;HPM_P1;HPM_P2
2022/10/22 00:00:59;;;;;;;7.57;4.45;;;;;;;11.90;100.00;100741.53;4965814;28;20027;-78
2022/10/22 00:03:24;;;;;;;7.00;3.60;;;;;;;11.87;100.00;100745.25;4966938;28;20031;-77
2022/10/22 00:05:50;;;;;;;5.80;4.03;;;;;;;11.88;100.00;100752.06;4966744;28;20484;-78
2022/10/22 00:08:15;;;;;;;9.00;3.88;;;;;;;11.84;100.00;100752.56;4958008;28;20082;-77
2022/10/22 00:10:41;;;;;;;11.48;4.90;;;;;;;11.80;100.00;100746.88;4967536;28;20400;-78
2022/10/22 00:13:06;;;;;;;8.15;3.85;;;;;;;11.82;100.00;100754.50;4962241;28;20391;-77
2022/10/22 00:15:32;;;;;;;9.65;3.85;;;;;;;11.77;100.00;100746.38;4968270;28;20041;-78
2022/10/22 00:17:57;;;;;;;6.68;4.18;;;;;;;11.74;100.00;100754.53;4961438;28;20035;-77
2022/10/22 00:20:23;;;;;;;11.50;4.57;;;;;;;11.74;100.00;100754.53;4966447;28;20039;-77
2022/10/22 00:22:48;;;;;;;7.93;3.78;;;;;;;11.69;100.00;100753.22;4961644;28;20035;-77
2022/10/22 00:25:14;;;;;;;7.55;4.18;;;;;;;11.69;100.00;100752.41;4967149;28;20034;-77
2022/10/22 00:27:40;;;;;;;10.13;4.70;;;;;;;11.67;100.00;100755.16;4961291;28;20074;-77
2022/10/22 00:30:07;;;;;;;7.60;5.03;;;;;;;11.66;100.00;100755.34;4963193;28;20709;-78
2022/10/22 00:32:32;;;;;;;9.48;5.68;;;;;;;11.66;100.00;100752.75;4980033;28;20038;-78
2022/10/22 00:34:58;;;;;;;8.98;4.53;;;;;;;11.64;100.00;100754.69;4945722;28;20030;-76
2022/10/22 00:37:23;;;;;;;10.30;5.50;;;;;;;11.61;100.00;100739.44;4961918;28;20031;-78
2022/10/22 00:39:49;;;;;;;8.40;5.10;;;;;;;11.60;100.00;100735.22;4982269;28;20037;-77
2022/10/22 00:42:21;;;;;;;10.70;4.43;;;;;;;11.56;100.00;100739.13;4974268;28;20091;-78
2022/10/22 00:45:04;;;;;;;9.85;4.88;;;;;;;11.55;100.00;100737.50;4965353;28;20110;-77
2022/10/22 00:48:04;;;;;;;7.18;4.60;;;;;;;11.56;100.00;100750.31;4963270;28;20062;-77
2022/10/22 00:50:41;;;;;;;15.70;5.00;;;;;;;11.55;100.00;100753.09;4962978;28;20121;-78
2022/10/22 00:53:12;;;;;;;12.65;4.63;;;;;;;11.51;100.00;100744.81;4969113;28;20031;-79
2022/10/22 00:55:38;;;;;;;7.68;5.32;;;;;;;11.46;100.00;100737.50;4966452;28;20181;-79
2022/10/22 00:58:04;;;;;;;13.23;5.65;;;;;;;11.52;100.00;100740.44;4968390;28;20808;-79
2022/10/22 01:00:30;;;;;;;11.73;5.57;;;;;;;11.47;100.00;100736.53;4964392;28;20035;-77
2022/10/22 01:02:56;;;;;;;8.77;4.82;;;;;;;11.47;100.00;100735.69;4967815;28;20386;-78
2022/10/22 01:05:27;;;;;;;11.43;6.68;;;;;;;11.47;100.00;100746.09;4965494;28;20066;-77
2022/10/22 01:07:53;;;;;;;9.25;5.28;;;;;;;11.45;100.00;100742.84;4947206;28;20030;-77
2022/10/22 01:10:36;;;;;;;10.05;5.80;;;;;;;11.43;100.00;100740.44;4962279;28;20054;-77
2022/10/22 01:13:20;;;;;;;14.63;8.48;;;;;;;11.44;100.00;100736.84;4966854;28;20492;-78
2022/10/22 01:16:03;;;;;;;10.50;6.65;;;;;;;11.43;100.00;100732.66;4980438;28;20109;-78
2022/10/22 01:19:05;;;;;;;11.02;6.30;;;;;;;11.43;100.00;100737.00;4951114;28;20038;-78
2022/10/22 01:21:49;;;;;;;15.57;6.47;;;;;;;11.42;100.00;100736.22;4984274;28;20039;-77
2022/10/22 01:24:32;;;;;;;11.45;7.40;;;;;;;11.43;100.00;100731.81;4951547;28;20035;-78
2022/10/22 01:27:38;;;;;;;14.02;8.40;;;;;;;11.43;100.00;100730.06;4970740;28;20484;-78
2022/10/22 01:30:05;;;;;;;14.48;7.80;;;;;;;11.39;100.00;100726.13;4950000;28;20033;-77
2022/10/22 01:32:38;;;;;;;14.77;7.70;;;;;;;11.39;100.00;100712.34;4986762;28;20086;-79
2022/10/22 01:35:08;;;;;;;18.05;10.95;;;;;;;11.44;100.00;100725.66;4969975;28;20027;-78
2022/10/22 01:37:39;;;;;;;19.75;9.60;;;;;;;11.42;100.00;100718.03;4972038;28;20030;-77
2022/10/22 01:40:06;;;;;;;14.25;8.38;;;;;;;11.39;100.00;100720.94;4988001;28;20034;-79
2022/10/22 01:42:31;;;;;;;14.55;9.68;;;;;;;11.38;100.00;100726.31;4968997;28;20043;-78
2022/10/22 01:44:57;;;;;;;24.10;9.85;;;;;;;11.37;100.00;100720.31;4971360;28;20026;-78
2022/10/22 01:47:44;;;;;;;24.55;10.18;;;;;;;11.64;100.00;100728.72;4978134;28;20050;-78
2022/10/22 01:50:19;;;;;;;16.90;9.35;;;;;;;11.56;100.00;100726.13;4966962;28;20031;-79
2022/10/22 01:53:14;;;;;;;21.25;10.60;;;;;;;11.50;100.00;100725.81;4984252;28;20039;-77
2022/10/22 01:55:48;;;;;;;19.30;8.98;;;;;;;11.48;100.00;100734.75;4965810;28;20031;-79
2022/10/22 01:58:32;;;;;;;20.77;9.68;;;;;;;11.49;100.00;100721.59;4983794;28;20030;-80
2022/10/22 02:01:03;;;;;;;18.58;8.30;;;;;;;11.61;100.00;100736.84;4966270;28;20484;-79
2022/10/22 02:03:37;;;;;;;20.20;10.02;;;;;;;11.64;100.00;100734.72;4966069;28;20034;-78
2022/10/22 02:06:10;;;;;;;18.55;8.57;;;;;;;11.60;100.00;100735.22;4966634;28;20034;-79
2022/10/22 02:08:36;;;;;;;18.88;8.52;;;;;;;11.64;100.00;100736.50;4967973;28;20090;-79
2022/10/22 02:11:03;;;;;;;12.52;7.68;;;;;;;11.57;100.00;100732.97;4967348;28;20063;-79
2022/10/22 02:13:38;;;;;;;17.95;8.55;;;;;;;11.57;100.00;100740.75;4967812;28;20125;-79
2022/10/22 02:16:07;;;;;;;20.80;8.30;;;;;;;11.50;100.00;100738.78;4964836;28;20046;-79
2022/10/22 02:18:35;;;;;;;19.25;9.15;;;;;;;11.49;100.00;100746.75;4982967;28;20373;-79
2022/10/22 02:21:01;;;;;;;19.05;9.73;;;;;;;11.54;100.00;100743.66;4983573;28;20035;-78
2022/10/22 02:23:27;;;;;;;18.10;8.85;;;;;;;11.69;100.00;100748.03;4973047;28;20368;-78
2022/10/22 02:25:59;;;;;;;15.70;9.07;;;;;;;11.66;100.00;100748.38;4961214;28;20680;-79
2022/10/22 02:28:42;;;;;;;14.50;8.85;;;;;;;11.76;100.00;100749.97;4983458;28;20031;-77
2022/10/22 02:31:15;;;;;;;18.35;8.63;;;;;;;11.63;100.00;100753.06;4967306;28;20070;-78
2022/10/22 02:33:45;;;;;;;23.73;9.13;;;;;;;11.52;100.00;100750.81;4968021;28;20043;-80
2022/10/22 02:36:12;;;;;;;17.35;9.20;;;;;;;11.48;100.00;100756.31;4959036;28;20169;-78
2022/10/22 02:38:38;;;;;;;17.13;8.43;;;;;;;11.41;100.00;100757.94;4981733;28;20031;-79
2022/10/22 02:41:04;;;;;;;16.67;7.60;;;;;;;11.36;100.00;100757.63;4984070;28;20106;-79
2022/10/22 02:43:29;;;;;;;18.98;9.43;;;;;;;11.43;100.00;100750.81;4952264;28;20129;-77
2022/10/22 02:45:55;;;;;;;15.27;8.10;;;;;;;11.39;100.00;100753.88;4953835;28;20399;-80
2022/10/22 02:48:20;;;;;;;14.45;7.80;;;;;;;11.31;100.00;100757.28;4967097;28;20052;-79
2022/10/22 02:50:46;;;;;;;14.68;7.70;;;;;;;11.28;100.00;100761.03;4966932;28;20038;-79
2022/10/22 02:53:11;;;;;;;13.93;7.38;;;;;;;11.24;100.00;100758.91;4979836;28;20039;-80
2022/10/22 02:55:37;;;;;;;16.48;7.65;;;;;;;11.20;100.00;100755.81;4967904;28;20034;-80
2022/10/22 02:58:02;;;;;;;14.80;8.05;;;;;;;11.17;100.00;100745.78;4968394;28;20027;-80
2022/10/22 03:00:28;;;;;;;13.50;7.57;;;;;;;11.14;100.00;100755.66;4966475;28;20027;-81
2022/10/22 03:02:53;;;;;;;11.98;7.28;;;;;;;11.12;100.00;100761.00;4950980;28;20062;-80
2022/10/22 03:05:19;;;;;;;13.63;7.57;;;;;;;11.10;100.00;100766.34;4966348;28;20024;-79
2022/10/22 03:07:44;;;;;;;14.45;7.10;;;;;;;11.07;100.00;100756.28;4986100;28;20092;-81
2022/10/22 03:10:10;;;;;;;12.85;6.68;;;;;;;11.04;100.00;100756.63;4965800;28;20050;-79
2022/10/22 03:12:35;;;;;;;11.35;6.82;;;;;;;11.01;100.00;100751.75;4967279;28;20084;-80
2022/10/22 03:15:01;;;;;;;12.10;6.78;;;;;;;11.01;100.00;100753.53;4967304;28;21982;-81
2022/10/22 03:17:26;;;;;;;10.90;7.35;;;;;;;10.99;100.00;100753.69;4966569;28;20034;-80
2022/10/22 03:19:51;;;;;;;13.00;7.35;;;;;;;10.98;100.00;100752.09;4970058;28;20030;-81
2022/10/22 03:22:22;;;;;;;10.02;6.78;;;;;;;10.96;100.00;100753.19;4984962;28;20031;-80
2022/10/22 03:24:51;;;;;;;12.93;6.72;;;;;;;10.96;100.00;100750.59;4973042;28;20030;-80
2022/10/22 03:27:20;;;;;;;10.95;6.82;;;;;;;10.92;100.00;100757.88;4968413;28;20484;-81
2022/10/22 03:29:47;;;;;;;13.50;7.05;;;;;;;10.90;100.00;100762.44;4962443;28;20169;-79
2022/10/22 03:32:13;;;;;;;11.05;6.97;;;;;;;10.88;100.00;100770.38;4963044;28;20034;-80
2022/10/22 03:34:38;;;;;;;10.32;7.68;;;;;;;10.88;100.00;100764.38;4967305;28;20027;-81
2022/10/22 03:37:04;;;;;;;18.27;7.68;;;;;;;10.86;100.00;100766.31;4951524;28;21323;-80
2022/10/22 03:39:32;;;;;;;13.88;6.68;;;;;;;10.85;100.00;100765.50;4985574;28;20038;-80
2022/10/22 03:41:58;;;;;;;10.50;6.80;;;;;;;10.82;100.00;100776.19;4983053;28;20027;-81
2022/10/22 03:44:25;;;;;;;15.10;7.07;;;;;;;10.81;100.00;100765.97;4964327;28;20113;-79
2022/10/22 03:46:50;;;;;;;16.05;6.55;;;;;;;10.83;100.00;100766.63;4966499;28;20066;-80
2022/10/22 03:49:16;;;;;;;9.45;6.22;;;;;;;10.78;100.00;100767.09;4953711;28;20158;-81
2022/10/22 03:51:41;;;;;;;11.57;5.85;;;;;;;10.76;100.00;100758.69;4966330;28;20039;-80
2022/10/22 03:54:07;;;;;;;14.77;6.80;;;;;;;10.73;100.00;100768.53;4948981;28;20034;-80
2022/10/22 03:56:32;;;;;;;12.35;6.55;;;;;;;10.70;100.00;100769.69;4965203;28;20041;-82
2022/10/22 03:58:59;;;;;;;13.43;6.40;;;;;;;10.66;100.00;100764.00;4951783;28;20546;-81
2022/10/22 04:01:25;;;;;;;12.25;5.82;;;;;;;10.64;100.00;100773.72;4952663;28;20035;-81
2022/10/22 04:03:51;;;;;;;10.73;6.60;;;;;;;10.65;100.00;100777.91;4950179;28;20054;-80
2022/10/22 04:06:16;;;;;;;9.88;5.47;;;;;;;10.64;100.00;100778.91;4982929;28;20031;-80
2022/10/22 04:08:43;;;;;;;13.48;6.38;;;;;;;10.63;100.00;100789.44;4969357;28;20031;-80
2022/10/22 04:11:10;;;;;;;11.73;5.90;;;;;;;10.61;100.00;100786.97;4950753;28;20491;-81
2022/10/22 04:13:36;;;;;;;11.07;5.70;;;;;;;10.59;100.00;100788.94;4967387;28;20990;-80
2022/10/22 04:16:18;;;;;;;10.98;6.15;;;;;;;10.57;100.00;100790.88;4980032;28;20066;-80
2022/10/22 04:18:45;;;;;;;13.73;5.95;;;;;;;10.55;100.00;100787.63;4964306;28;20414;-80
2022/10/22 04:21:13;;;;;;;8.65;6.05;;;;;;;10.51;100.00;100796.69;4945608;28;20034;-81
2022/10/22 04:23:44;;;;;;;10.02;5.63;;;;;;;10.47;100.00;100795.34;4963847;28;20476;-81
2022/10/22 04:26:09;;;;;;;9.15;5.15;;;;;;;10.44;100.00;100804.25;4979264;28;20532;-80
2022/10/22 04:28:35;;;;;;;15.35;5.90;;;;;;;10.41;100.00;100799.38;4965561;28;20042;-81
2022/10/22 04:31:07;;;;;;;8.65;4.93;;;;;;;10.38;100.00;100796.25;4968425;28;20053;-79
2022/10/22 04:33:32;;;;;;;13.60;4.93;;;;;;;10.36;100.00;100801.63;4964188;28;20545;-80
2022/10/22 04:35:58;;;;;;;12.10;5.38;;;;;;;10.32;100.00;100797.69;4966868;28;20045;-80
2022/10/22 04:38:23;;;;;;;9.43;5.13;;;;;;;10.29;100.00;100806.56;4967578;28;20081;-80
2022/10/22 04:40:49;;;;;;;12.45;5.68;;;;;;;10.27;100.00;100805.91;4978371;28;20030;-81
2022/10/22 04:43:14;;;;;;;9.82;5.60;;;;;;;10.26;100.00;100804.28;4951332;28;20480;-81
2022/10/22 04:45:39;;;;;;;9.95;5.45;;;;;;;10.23;100.00;100804.59;4974664;28;21466;-79
2022/10/22 04:48:05;;;;;;;8.02;5.68;;;;;;;10.21;100.00;100798.75;4960351;28;20042;-81
2022/10/22 04:50:31;;;;;;;8.32;5.28;;;;;;;10.18;100.00;100806.03;4964713;28;20038;-80
2022/10/22 04:52:56;;;;;;;10.10;4.95;;;;;;;10.14;100.00;100800.34;4982121;28;20043;-79
2022/10/22 04:55:22;;;;;;;7.90;4.95;;;;;;;10.11;100.00;100798.88;4968257;28;20031;-81
2022/10/22 04:57:47;;;;;;;11.63;5.03;;;;;;;10.09;100.00;100802.56;4949315;28;20035;-82
2022/10/22 05:00:13;;;;;;;9.07;4.93;;;;;;;10.06;100.00;100805.47;4965648;28;20031;-79
2022/10/22 05:02:38;;;;;;;9.30;5.13;;;;;;;10.05;100.00;100806.44;4980216;28;20121;-80
2022/10/22 05:05:04;;;;;;;9.00;4.93;;;;;;;10.04;100.00;100815.16;4971489;28;20031;-77
2022/10/22 05:07:29;;;;;;;11.35;5.20;;;;;;;10.02;100.00;100812.75;4969711;28;20368;-81
2022/10/22 05:09:54;;;;;;;8.43;4.72;;;;;;;10.02;100.00;100809.31;4982309;28;20038;-81
2022/10/22 05:12:20;;;;;;;9.55;5.18;;;;;;;10.04;100.00;100818.56;4966773;28;20038;-80
2022/10/22 05:14:45;;;;;;;6.20;4.50;;;;;;;10.03;100.00;100816.13;4970623;28;20023;-79
2022/10/22 05:17:11;;;;;;;11.85;4.68;;;;;;;10.02;100.00;100817.09;4969090;28;20535;-80
2022/10/22 05:19:36;;;;;;;8.52;5.38;;;;;;;10.01;100.00;100821.47;4968992;28;20043;-79
2022/10/22 05:22:03;;;;;;;7.25;4.57;;;;;;;10.00;100.00;100822.44;4968544;28;20555;-79
2022/10/22 05:24:31;;;;;;;9.77;4.82;;;;;;;9.99;100.00;100825.97;4968054;28;20039;-79
2022/10/22 05:26:57;;;;;;;8.77;4.63;;;;;;;9.99;100.00;100832.94;4983714;28;20114;-79
2022/10/22 05:29:24;;;;;;;7.97;4.80;;;;;;;9.98;100.00;100828.72;4969027;28;20027;-80
2022/10/22 05:31:49;;;;;;;9.60;5.40;;;;;;;9.96;100.00;100834.03;4965837;28;20424;-80
2022/10/22 05:34:15;;;;;;;11.55;5.10;;;;;;;9.93;100.00;100837.75;4979973;28;20043;-78
2022/10/22 05:36:41;;;;;;;7.03;4.13;;;;;;;9.92;100.00;100836.13;4969657;28;20043;-79
2022/10/22 05:39:07;;;;;;;6.85;4.32;;;;;;;9.90;100.00;100840.63;4976627;28;20129;-79
2022/10/22 05:41:37;;;;;;;17.35;6.63;;;;;;;9.87;100.00;100832.34;4983791;28;20081;-78
2022/10/22 05:44:02;;;;;;;11.02;4.75;;;;;;;9.85;100.00;100845.47;4966978;28;20097;-78
2022/10/22 05:46:29;;;;;;;9.20;4.47;;;;;;;9.86;100.00;100841.91;4951691;28;20512;-81
2022/10/22 05:48:57;;;;;;;7.80;4.63;;;;;;;9.85;100.00;100848.06;4963159;28;20523;-78
2022/10/22 05:51:24;;;;;;;10.30;4.85;;;;;;;9.86;100.00;100848.88;4967599;28;20399;-78
2022/10/22 05:54:01;;;;;;;8.95;4.82;;;;;;;9.84;100.00;100854.19;4960443;28;20026;-77
2022/10/22 05:56:29;;;;;;;10.75;4.95;;;;;;;9.84;100.00;100856.78;4969503;28;20034;-78
2022/10/22 05:58:55;;;;;;;10.18;5.40;;;;;;;9.84;100.00;100861.16;4968749;28;20039;-78
2022/10/22 06:01:31;;;;;;;7.63;4.53;;;;;;;9.83;100.00;100864.69;4951222;28;20391;-77
2022/10/22 06:04:02;;;;;;;7.75;4.82;;;;;;;9.81;100.00;100864.84;4968831;28;20061;-78
2022/10/22 06:06:36;;;;;;;6.35;4.18;;;;;;;9.80;100.00;100862.44;4971184;28;20031;-80
2022/10/22 06:09:12;;;;;;;9.30;5.00;;;;;;;9.77;100.00;100865.31;4968275;28;20350;-78
2022/10/22 06:11:37;;;;;;;5.75;4.20;;;;;;;9.75;100.00;100868.84;4966003;28;20039;-78
2022/10/22 06:14:03;;;;;;;9.13;4.80;;;;;;;9.79;100.00;100873.75;4963802;28;20019;-78
2022/10/22 06:16:29;;;;;;;11.57;4.55;;;;;;;9.76;100.00;100880.03;4967936;28;20666;-78
2022/10/22 06:18:57;;;;;;;12.98;4.38;;;;;;;9.75;100.00;100878.41;4981998;28;20038;-78
2022/10/22 06:21:23;;;;;;;10.02;4.25;;;;;;;9.75;100.00;100881.00;4968284;28;20110;-77
2022/10/22 06:23:48;;;;;;;10.77;3.70;;;;;;;9.75;100.00;100883.56;4967524;28;20039;-78
2022/10/22 06:26:14;;;;;;;8.15;4.10;;;;;;;9.77;100.00;100888.59;4969368;28;20047;-76
2022/10/22 06:28:39;;;;;;;10.63;3.80;;;;;;;9.81;100.00;100887.34;4969288;28;20046;-78
2022/10/22 06:31:05;;;;;;;11.15;5.40;;;;;;;9.85;100.00;100892.09;4965142;28;20564;-77
2022/10/22 06:33:33;;;;;;;8.93;4.20;;;;;;;9.93;100.00;100896.53;4968305;28;20034;-77
2022/10/22 06:36:11;;;;;;;9.98;4.10;;;;;;;9.98;100.00;100903.84;4967760;28;20112;-77
2022/10/22 06:38:37;;;;;;;9.18;4.10;;;;;;;10.03;100.00;100906.81;4963238;28;20039;-77
2022/10/22 06:41:09;;;;;;;7.70;3.95;;;;;;;10.06;100.00;100911.69;4967373;28;20035;-78
2022/10/22 06:43:34;;;;;;;10.80;4.15;;;;;;;10.09;100.00;100911.38;4967705;28;20035;-76
2022/10/22 06:46:03;;;;;;;12.65;4.90;;;;;;;10.17;100.00;100921.00;4984232;28;20037;-77
2022/10/22 06:48:28;;;;;;;11.73;4.90;;;;;;;10.28;100.00;100925.94;4966657;28;20060;-77
2022/10/22 06:50:54;;;;;;;9.68;4.68;;;;;;;10.33;100.00;100934.13;4958935;28;20656;-77
2022/10/22 06:53:19;;;;;;;9.52;4.40;;;;;;;10.47;100.00;100930.16;4969854;28;20030;-77
2022/10/22 06:55:45;;;;;;;18.98;6.95;;;;;;;10.53;100.00;100942.53;4970011;28;20397;-77
2022/10/22 06:58:10;;;;;;;14.32;5.93;;;;;;;10.59;100.00;100946.28;4964242;28;20035;-78
2022/10/22 07:00:36;;;;;;;13.25;5.00;;;;;;;10.63;100.00;100947.59;4972032;28;20039;-78
2022/10/22 07:03:01;;;;;;;12.23;5.32;;;;;;;10.71;100.00;100958.81;4971264;28;20046;-77
2022/10/22 07:05:27;;;;;;;13.98;5.43;;;;;;;10.82;100.00;100962.94;4968344;28;20038;-78
2022/10/22 07:07:52;;;;;;;12.85;5.35;;;;;;;10.85;100.00;100973.03;4975407;28;20498;-79
2022/10/22 07:10:18;;;;;;;13.98;5.30;;;;;;;10.89;100.00;100979.53;4970707;28;20046;-80
2022/10/22 07:12:43;;;;;;;12.95;4.97;;;;;;;10.93;100.00;100981.84;4990604;28;20482;-80
2022/10/22 07:15:09;;;;;;;13.45;5.38;;;;;;;10.97;100.00;100985.75;4972258;28;20121;-81
2022/10/22 07:17:35;;;;;;;13.15;4.95;;;;;;;11.00;100.00;101000.97;4970083;28;20031;-81
2022/10/22 07:20:00;;;;;;;9.68;4.90;;;;;;;11.00;100.00;101001.81;4950121;29;20082;-79
2022/10/22 07:22:26;;;;;;;12.93;4.65;;;;;;;11.00;100.00;101012.19;4973127;28;20510;-79
2022/10/22 07:24:51;;;;;;;11.52;5.55;;;;;;;11.02;100.00;101012.03;4973097;28;20726;-78
2022/10/22 07:27:17;;;;;;;14.63;5.35;;;;;;;11.06;100.00;101018.56;4969778;28;20046;-80
2022/10/22 07:29:42;;;;;;;12.35;5.07;;;;;;;11.15;100.00;101027.19;4980788;28;20031;-80
2022/10/22 07:32:08;;;;;;;14.10;5.15;;;;;;;11.19;100.00;101031.09;4974706;28;20460;-79
2022/10/22 07:34:33;;;;;;;12.82;5.25;;;;;;;11.20;100.00;101033.53;4960704;28;20129;-81
2022/10/22 07:36:59;;;;;;;12.93;5.78;;;;;;;11.23;100.00;101035.84;4991782;28;20034;-79
2022/10/22 07:39:24;;;;;;;14.60;6.03;;;;;;;11.30;100.00;101036.00;4976044;28;20026;-79
2022/10/22 07:41:51;;;;;;;13.07;4.63;;;;;;;11.54;100.00;101045.72;4955225;28;20381;-80
2022/10/22 07:44:16;;;;;;;11.02;4.07;;;;;;;11.64;100.00;101049.00;4960519;28;20051;-82
2022/10/22 07:46:41;;;;;;;9.68;4.25;;;;;;;11.69;100.00;101044.13;4978687;28;20047;-82
2022/10/22 07:49:07;;;;;;;11.43;4.65;;;;;;;11.76;100.00;101046.13;4977728;28;20408;-80
2022/10/22 07:51:32;;;;;;;9.77;4.32;;;;;;;11.81;100.00;101060.28;4975711;28;20857;-81
2022/10/22 07:53:58;;;;;;;11.68;3.63;;;;;;;11.86;100.00;101052.78;4971925;28;20125;-81
2022/10/22 07:56:23;;;;;;;10.95;4.70;;;;;;;11.97;100.00;101054.31;4975988;28;20038;-82
2022/10/22 07:58:49;;;;;;;14.55;4.45;;;;;;;11.97;100.00;101056.91;4975803;28;20046;-82
2022/10/22 08:01:14;;;;;;;18.85;8.02;;;;;;;12.05;100.00;101066.53;4980550;28;20046;-80
2022/10/22 08:03:40;;;;;;;76.18;32.63;;;;;;;12.07;100.00;101070.59;4972708;28;20034;-82
2022/10/22 08:06:05;;;;;;;58.22;22.17;;;;;;;12.14;100.00;101067.38;4972002;28;20031;-83
2022/10/22 08:08:31;;;;;;;19.80;4.68;;;;;;;12.24;100.00;101068.84;4973146;28;20504;-79
2022/10/22 08:10:59;;;;;;;14.90;5.72;;;;;;;12.28;100.00;101066.72;4975788;28;20035;-81
2022/10/22 08:13:25;;;;;;;15.68;5.95;;;;;;;12.36;100.00;101061.53;4956508;28;20070;-79
2022/10/22 08:15:50;;;;;;;11.90;4.20;;;;;;;12.44;100.00;101060.75;4983169;28;20219;-80
2022/10/22 08:18:16;;;;;;;108.82;51.05;;;;;;;12.54;100.00;101055.38;4967554;28;20050;-79
2022/10/22 08:20:41;;;;;;;23.45;11.55;;;;;;;12.71;100.00;101064.78;4968972;28;20042;-79
2022/10/22 08:23:08;;;;;;;13.57;4.40;;;;;;;12.79;100.00;101058.78;4969036;28;20184;-80
2022/10/22 08:25:33;;;;;;;16.83;5.30;;;;;;;12.85;100.00;101051.13;4965834;28;20035;-79
2022/10/22 08:27:58;;;;;;;18.90;10.45;;;;;;;12.85;100.00;101042.53;4964134;28;20039;-78
2022/10/22 08:30:26;;;;;;;15.52;5.35;;;;;;;12.93;100.00;101041.69;4967855;28;20035;-78
2022/10/22 08:32:52;;;;;;;12.75;2.85;;;;;;;13.09;100.00;101048.66;4969365;28;20042;-77
2022/10/22 08:35:17;;;;;;;19.38;7.55;;;;;;;13.23;100.00;101055.78;4985321;28;20451;-77
2022/10/22 08:37:43;;;;;;;12.38;6.75;;;;;;;13.29;100.00;101051.69;4973350;28;20068;-77
2022/10/22 08:40:20;;;;;;;8.18;3.65;;;;;;;13.38;100.00;101054.13;4974995;28;20035;-76
2022/10/22 08:42:59;;;;;;;9.68;2.30;;;;;;;13.48;100.00;101050.53;4969217;28;20035;-77
2022/10/22 08:45:50;;;;;;;19.75;5.10;;;;;;;13.55;100.00;101054.09;4965729;28;20054;-76
2022/10/22 08:48:16;;;;;;;6.07;1.98;;;;;;;13.73;100.00;101053.81;4952083;28;20034;-77
2022/10/22 08:50:46;;;;;;;12.43;1.98;;;;;;;14.19;100.00;101059.13;4967585;28;20046;-76
2022/10/22 08:53:16;;;;;;;10.55;1.83;;;;;;;14.35;100.00;101052.97;4969975;28;20038;-76
2022/10/22 08:55:43;;;;;;;11.20;1.98;;;;;;;14.27;100.00;101055.63;4968754;28;20031;-75
2022/10/22 08:58:39;;;;;;;7.63;1.63;;;;;;;14.24;100.00;101067.22;4964245;28;20031;-77
2022/10/22 09:01:11;;;;;;;6.68;2.05;;;;;;;14.19;100.00;101067.75;4970361;28;20035;-78
2022/10/22 09:03:55;;;;;;;9.77;2.58;;;;;;;14.12;100.00;101072.00;4984509;28;20377;-77
2022/10/22 09:06:22;;;;;;;;;;;;;;;14.10;100.00;101070.56;4970336;28;20034;-77
2022/10/22 09:08:47;;;;;;;6.97;1.35;;;;;;;14.15;100.00;101071.69;4969503;28;20411;-77
2022/10/22 09:11:33;;;;;;;11.40;1.77;;;;;;;14.30;100.00;101070.94;4971444;28;20116;-75
2022/10/22 09:14:01;;;;;;;6.90;1.50;;;;;;;14.31;100.00;101072.56;4971989;28;20031;-76
2022/10/22 09:16:49;;;;;;;3.97;1.85;;;;;;;14.35;100.00;101076.44;4969967;28;20039;-77
2022/10/22 09:19:33;;;;;;;14.23;2.50;;;;;;;14.32;100.00;101071.59;4969461;28;20030;-77
2022/10/22 09:22:53;;;;;;;5.03;1.67;;;;;;;14.37;100.00;101077.91;4972539;28;20031;-77
2022/10/22 09:25:28;;;;;;;9.85;1.33;;;;;;;14.41;100.00;101083.59;4953003;28;20444;-76
2022/10/22 09:27:57;;;;;;;9.73;2.88;;;;;;;14.65;100.00;101076.56;4969177;28;20047;-77
2022/10/22 09:30:25;;;;;;;10.50;1.40;;;;;;;14.57;100.00;101077.44;4972615;28;20474;-76
2022/10/22 09:32:58;;;;;;;7.68;1.25;;;;;;;14.62;100.00;101071.69;4966681;28;20495;-77
2022/10/22 09:35:23;;;;;;;9.95;1.20;;;;;;;14.77;100.00;101078.59;4966120;28;20446;-75
2022/10/22 09:37:54;;;;;;;10.10;1.65;;;;;;;14.86;99.56;101075.88;4985349;28;20038;-77
2022/10/22 09:40:19;;;;;;;7.30;1.20;;;;;;;14.89;99.55;101078.16;4971213;28;20421;-76
2022/10/22 09:42:46;;;;;;;8.90;1.60;;;;;;;14.92;99.86;101088.25;4967684;28;20039;-75
2022/10/22 09:45:23;;;;;;;8.70;1.20;;;;;;;14.90;100.00;101085.81;4969945;28;20031;-76
2022/10/22 09:48:01;;;;;;;9.25;1.00;;;;;;;15.03;99.99;101089.59;4966502;28;20043;-76
2022/10/22 09:50:37;;;;;;;9.63;1.45;;;;;;;15.16;98.56;101085.41;4987034;28;20035;-76
2022/10/22 09:53:04;;;;;;;7.85;1.23;;;;;;;15.28;97.48;101088.38;4970943;28;20398;-78
2022/10/22 09:55:30;;;;;;;9.82;3.15;;;;;;;15.44;95.04;101091.78;4971109;28;20073;-78
2022/10/22 09:57:59;;;;;;;5.28;1.00;;;;;;;15.49;94.43;101090.25;4987616;28;20102;-76
2022/10/22 10:00:27;;;;;;;10.00;1.60;;;;;;;15.48;93.79;101100.88;4969531;28;20045;-77
2022/10/22 10:02:55;;;;;;;6.03;1.52;;;;;;;15.49;93.96;101105.13;4967560;28;20035;-76
2022/10/22 10:05:27;;;;;;;9.50;1.80;;;;;;;15.60;93.44;101103.88;4970634;28;20073;-76
2022/10/22 10:07:52;;;;;;;10.90;1.95;;;;;;;15.69;93.01;101116.66;4968928;28;20042;-77
2022/10/22 10:10:26;;;;;;;8.75;1.20;;;;;;;15.72;91.97;101115.47;4970415;28;20049;-76
2022/10/22 10:13:16;;;;;;;13.15;1.52;;;;;;;15.73;93.06;101120.56;4972790;28;20033;-78
2022/10/22 10:15:49;;;;;;;4.20;1.35;;;;;;;15.76;91.63;101120.22;4964500;28;20019;-76
2022/10/22 10:18:46;;;;;;;7.68;1.55;;;;;;;15.81;90.19;101122.25;4974514;28;20380;-76
2022/10/22 10:21:22;;;;;;;12.65;2.13;;;;;;;15.86;89.45;101121.69;4955637;28;20498;-81
2022/10/22 10:24:02;;;;;;;6.85;1.63;;;;;;;15.85;88.79;101130.56;4963741;28;20098;-76
2022/10/22 10:26:38;;;;;;;8.90;1.10;;;;;;;15.68;89.05;101137.75;4972958;28;20496;-81
2022/10/22 10:29:15;;;;;;;2.85;1.15;;;;;;;15.54;90.70;101144.63;4966622;28;20036;-76
2022/10/22 10:31:40;;;;;;;9.40;1.10;;;;;;;15.64;90.82;101144.34;4958118;28;20035;-77
2022/10/22 10:34:18;;;;;;;12.93;1.58;;;;;;;15.69;91.04;101145.41;4963849;28;21965;-77
2022/10/22 10:37:01;;;;;;;7.18;0.93;;;;;;;15.63;89.64;101137.47;4982859;28;20045;-77
2022/10/22 10:39:41;;;;;;;9.85;1.45;;;;;;;15.71;89.04;101138.19;4948559;28;20034;-77
2022/10/22 10:42:29;;;;;;;4.97;1.08;;;;;;;15.84;88.96;101142.81;4966265;28;20053;-78
2022/10/22 10:45:23;;;;;;;14.68;1.33;;;;;;;15.81;88.90;101142.38;4967906;28;20050;-77
2022/10/22 10:48:03;;;;;;;5.90;1.20;;;;;;;15.82;88.32;101138.75;4959371;28;20562;-78
2022/10/22 10:50:41;;;;;;;7.63;2.70;;;;;;;15.89;88.14;101142.25;4964900;28;20039;-77
2022/10/22 10:53:54;;;;;;;8.48;2.28;;;;;;;15.95;87.95;101152.81;4971043;28;20039;-76
2022/10/22 10:56:56;;;;;;;6.43;1.83;;;;;;;15.89;88.52;101147.50;4948499;28;20041;-77
2022/10/22 10:59:56;;;;;;;4.70;1.05;;;;;;;15.94;87.58;101138.09;4965790;28;20042;-76
2022/10/22 11:02:43;;;;;;;8.30;1.52;;;;;;;16.02;87.01;101147.66;4977835;28;20815;-80
2022/10/22 11:05:36;;;;;;;6.18;1.60;;;;;;;16.09;86.72;101156.41;4965481;28;20046;-77
2022/10/22 11:08:17;;;;;;;7.82;1.73;;;;;;;15.94;86.78;101148.56;4963287;28;20308;-76
2022/10/22 11:10:54;;;;;;;9.80;1.67;;;;;;;16.15;85.97;101167.94;4968060;28;20089;-77
2022/10/22 11:13:37;;;;;;;6.22;2.55;;;;;;;16.14;86.98;101163.66;4953762;28;20034;-77
2022/10/22 11:16:16;;;;;;;4.20;1.20;;;;;;;16.14;86.99;101161.88;4982794;28;20027;-76
2022/10/22 11:19:03;;;;;;;6.78;2.00;;;;;;;16.11;85.77;101158.84;4975987;28;20114;-77
2022/10/22 11:21:44;;;;;;;9.38;1.75;;;;;;;16.11;85.40;101167.47;4978848;28;20101;-77
2022/10/22 11:24:27;;;;;;;4.93;1.25;;;;;;;16.24;84.27;101156.34;4966197;28;20043;-78
2022/10/22 11:27:19;;;;;;;8.65;1.77;;;;;;;16.27;84.89;101161.22;4964706;28;20054;-77
2022/10/22 11:29:52;;;;;;;5.40;1.25;;;;;;;16.21;85.08;101171.63;4954221;28;20042;-79